createdAt,value
2018-07-21T00:01:03.620Z,65.53
2018-07-21T00:02:12.482Z,65.53
2018-07-21T00:03:21.836Z,65.63
2018-07-21T00:04:30.700Z,65.14
2018-07-21T00:05:39.562Z,65.53
2018-07-21T00:06:48.704Z,65.46
2018-07-21T00:07:57.567Z,65.81
2018-07-21T00:09:06.781Z,65.24
2018-07-21T00:10:15.922Z,65.43
2018-07-21T00:11:24.787Z,65.14
2018-07-21T00:12:33.648Z,65.72
2018-07-21T00:13:42.788Z,65.53
2018-07-21T00:14:51.746Z,66.01
2018-07-21T00:16:00.885Z,65.05
2018-07-21T00:17:09.749Z,64.37
2018-07-21T00:18:18.893Z,65.05
2018-07-21T00:19:27.761Z,64.56
2018-07-21T00:20:36.772Z,63.79
2018-07-21T00:21:45.633Z,64.28
2018-07-21T00:22:54.499Z,64.56
2018-07-21T00:24:03.364Z,64.66
2018-07-21T00:25:12.222Z,64.76
2018-07-21T00:26:21.436Z,64.56
2018-07-21T00:27:30.296Z,64.95
2018-07-21T00:28:39.161Z,64.37
2018-07-21T00:29:48.573Z,64.66
2018-07-21T00:30:57.714Z,64.47
2018-07-21T00:32:07.004Z,65.14
2018-07-21T00:33:15.868Z,64.66
2018-07-21T00:34:24.743Z,65.63
2018-07-21T00:35:33.891Z,65.14
2018-07-21T00:36:42.754Z,65.53
2018-07-21T00:37:51.717Z,65.72
2018-07-21T00:39:00.854Z,65.24
2018-07-21T00:40:09.716Z,65.05
2018-07-21T00:41:18.579Z,65.63
2018-07-21T00:42:27.441Z,64.86
2018-07-21T00:43:36.304Z,65.24
2018-07-21T00:44:45.166Z,65.33
2018-07-21T00:45:54.028Z,64.28
2018-07-21T00:47:02.889Z,64.95
2018-07-21T00:48:11.750Z,65.33
2018-07-21T00:49:20.613Z,65.78
2018-07-21T00:50:29.472Z,65.24
2018-07-21T00:51:38.337Z,65.3
2018-07-21T00:52:47.517Z,65.2
2018-07-21T00:53:56.380Z,65.3
2018-07-21T00:55:05.240Z,65.33
2018-07-21T00:56:14.104Z,65.11
2018-07-21T00:57:22.973Z,65.69
2018-07-21T00:58:31.832Z,65.53
2018-07-21T00:59:40.696Z,64.92
2018-07-21T01:00:49.606Z,64.95
2018-07-21T01:01:58.468Z,65.53
2018-07-21T01:03:07.334Z,65.97
2018-07-21T01:04:16.748Z,65.4
2018-07-21T01:05:25.610Z,65.01
2018-07-21T01:06:35.096Z,65.01
2018-07-21T01:07:43.956Z,65.01
2018-07-21T01:08:52.815Z,65.01
2018-07-21T01:10:01.678Z,64.92
2018-07-21T01:11:10.600Z,64.34
2018-07-21T01:12:19.686Z,64.92
2018-07-21T01:13:28.549Z,65.2
2018-07-21T01:14:37.413Z,64.82
2018-07-21T01:15:46.547Z,64.43
2018-07-21T01:16:55.409Z,65.3
2018-07-21T01:18:04.269Z,64.92
2018-07-21T01:19:13.136Z,64.63
2018-07-21T01:20:22.551Z,65.11
2018-07-21T01:21:31.413Z,65.11
2018-07-21T01:22:40.274Z,65.5
2018-07-21T01:23:49.289Z,65.11
2018-07-21T01:24:58.147Z,65.5
2018-07-21T01:26:07.285Z,65.5
2018-07-21T01:27:16.145Z,64.92
2018-07-21T01:28:25.008Z,65.01
2018-07-21T01:29:33.868Z,64.43
2018-07-21T01:30:42.734Z,66.27
2018-07-21T01:31:51.592Z,65.3
2018-07-21T01:33:00.455Z,65.3
2018-07-21T01:34:09.594Z,65.4
2018-07-21T01:35:18.456Z,65.3
2018-07-21T01:36:27.319Z,65.2
2018-07-21T01:37:36.458Z,64.53
2018-07-21T01:38:45.597Z,65.59
2018-07-21T01:39:54.456Z,65.4
2018-07-21T01:41:03.946Z,65.97
2018-07-21T01:42:12.808Z,65.78
2018-07-21T01:43:21.676Z,65.11
2018-07-21T01:44:30.534Z,65.5
2018-07-21T01:45:39.395Z,64.82
2018-07-21T01:46:48.408Z,64.43
2018-07-21T01:47:57.269Z,64.63
2018-07-21T01:49:06.129Z,64.82
2018-07-21T01:50:14.990Z,64.82
2018-07-21T01:51:23.855Z,65.5
2018-07-21T01:52:32.766Z,64.92
2018-07-21T01:53:41.901Z,65.5
2018-07-21T01:54:50.763Z,65.3
2018-07-21T01:55:59.625Z,65.11
2018-07-21T01:57:08.769Z,65.4
2018-07-21T01:58:18.272Z,66.17
2018-07-21T01:59:27.410Z,66.07
2018-07-21T02:00:36.273Z,66.55
2018-07-21T02:01:45.135Z,66.94
2018-07-21T02:02:53.996Z,66.74
2018-07-21T02:04:02.857Z,66.36
2018-07-21T02:05:11.718Z,67.22
2018-07-21T02:06:20.579Z,67.22
2018-07-21T02:07:29.443Z,67.51
2018-07-21T02:08:38.303Z,67.8
2018-07-21T02:09:47.517Z,67.03
2018-07-21T02:10:56.375Z,67.51
2018-07-21T02:12:05.237Z,67.32
2018-07-21T02:13:14.097Z,67.51
2018-07-21T02:14:22.957Z,67.42
2018-07-21T02:15:32.173Z,67.8
2018-07-21T02:16:41.312Z,66.84
2018-07-21T02:17:50.449Z,66.84
2018-07-21T02:18:59.309Z,66.94
2018-07-21T02:20:08.445Z,67.32
2018-07-21T02:21:17.313Z,67.32
2018-07-21T02:22:26.449Z,67.51
2018-07-21T02:23:35.307Z,67.77
2018-07-21T02:24:44.169Z,68.09
2018-07-21T02:25:53.030Z,67.71
2018-07-21T02:27:01.892Z,67.96
2018-07-21T02:28:10.756Z,68.29
2018-07-21T02:29:19.892Z,68.86
2018-07-21T02:30:29.039Z,68.67
2018-07-21T02:31:38.177Z,67.99
2018-07-21T02:32:47.366Z,68.44
2018-07-21T02:33:56.518Z,69.31
2018-07-21T02:35:05.386Z,68.92
2018-07-21T02:36:14.535Z,69.31
2018-07-21T02:37:23.670Z,69.69
2018-07-21T02:38:32.962Z,69.6
2018-07-21T02:39:41.835Z,69.6
2018-07-21T02:40:50.988Z,69.79
2018-07-21T02:42:00.115Z,69.69
2018-07-21T02:43:08.978Z,69.5
2018-07-21T02:44:18.117Z,69.4
2018-07-21T02:45:27.280Z,69.5
2018-07-21T02:46:37.108Z,69.21
2018-07-21T02:47:46.523Z,69.4
2018-07-21T02:48:55.664Z,69.4
2018-07-21T02:50:04.956Z,69.79
2018-07-21T02:51:14.094Z,69.79
2018-07-21T02:52:22.960Z,69.79
2018-07-21T02:53:31.822Z,69.21
2018-07-21T02:54:40.967Z,69.79
2018-07-21T02:55:49.886Z,70.46
2018-07-21T02:56:58.752Z,70.56
2018-07-21T02:58:07.618Z,69.89
2018-07-21T02:59:17.032Z,69.69
2018-07-21T03:00:25.898Z,69.98
2018-07-21T03:01:35.040Z,70.17
2018-07-21T03:02:43.908Z,69.89
2018-07-21T03:03:53.337Z,70.07
2018-07-21T03:05:02.761Z,69.98
2018-07-21T03:06:12.192Z,69.98
2018-07-21T03:07:21.961Z,70.37
2018-07-21T03:08:30.826Z,70.37
2018-07-21T03:09:39.989Z,70.94
2018-07-21T03:10:49.143Z,70.43
2018-07-21T03:11:58.287Z,70.46
2018-07-21T03:13:07.851Z,70.56
2018-07-21T03:14:16.714Z,70.94
2018-07-21T03:15:25.577Z,70.52
2018-07-21T03:16:34.438Z,70.9
2018-07-21T03:17:43.860Z,71.14
2018-07-21T03:18:52.724Z,70.75
2018-07-21T03:20:01.589Z,71
2018-07-21T03:21:10.731Z,71.1
2018-07-21T03:22:19.873Z,70.9
2018-07-21T03:23:28.739Z,71
2018-07-21T03:24:37.873Z,71.29
2018-07-21T03:25:47.014Z,70.75
2018-07-21T03:26:56.155Z,71.23
2018-07-21T03:28:05.018Z,71.33
2018-07-21T03:29:13.881Z,71.04
2018-07-21T03:30:22.742Z,70.72
2018-07-21T03:31:31.882Z,71.1
2018-07-21T03:32:41.021Z,71.96
2018-07-21T03:33:49.879Z,71
2018-07-21T03:34:58.741Z,70.46
2018-07-21T03:36:07.956Z,71.14
2018-07-21T03:37:16.868Z,70.94
2018-07-21T03:38:25.727Z,70.94
2018-07-21T03:39:34.590Z,70.65
2018-07-21T03:40:43.450Z,70.17
2018-07-21T03:41:52.416Z,70.65
2018-07-21T03:43:01.280Z,70.27
2018-07-21T03:44:10.416Z,70.27
2018-07-21T03:45:19.280Z,69.31
2018-07-21T03:46:28.134Z,70.33
2018-07-21T03:47:37.095Z,69.95
2018-07-21T03:48:45.956Z,69.56
2018-07-21T03:49:55.091Z,69.46
2018-07-21T03:51:04.236Z,69.66
2018-07-21T03:52:13.374Z,69.69
2018-07-21T03:53:22.277Z,69.4
2018-07-21T03:54:31.416Z,69.46
2018-07-21T03:55:40.281Z,69.12
2018-07-21T03:56:49.141Z,69.02
2018-07-21T03:57:58.281Z,69.31
2018-07-21T03:59:07.242Z,69.02
2018-07-21T04:00:16.378Z,69.6
2018-07-21T04:01:25.242Z,69.4
2018-07-21T04:02:34.383Z,69.02
2018-07-21T04:03:43.246Z,69.21
2018-07-21T04:04:52.660Z,69.4
2018-07-21T04:06:01.798Z,68.92
2018-07-21T04:07:10.936Z,69.21
2018-07-21T04:08:19.797Z,69.31
2018-07-21T04:09:28.658Z,68.83
2018-07-21T04:10:37.520Z,68.73
2018-07-21T04:11:46.384Z,69.12
2018-07-21T04:12:55.244Z,69.02
2018-07-21T04:14:04.106Z,69.31
2018-07-21T04:15:13.245Z,69.31
2018-07-21T04:16:22.143Z,69.4
2018-07-21T04:17:30.975Z,69.21
2018-07-21T04:18:39.834Z,69.6
2018-07-21T04:19:48.699Z,69.4
2018-07-21T04:20:57.562Z,69.5
2018-07-21T04:22:06.862Z,69.4
2018-07-21T04:23:15.731Z,69.12
2018-07-21T04:24:24.860Z,69.79
2018-07-21T04:25:33.723Z,69.4
2018-07-21T04:26:42.584Z,69.5
2018-07-21T04:27:51.498Z,69.69
2018-07-21T04:29:00.642Z,69.79
2018-07-21T04:30:09.504Z,70.17
2018-07-21T04:31:18.643Z,69.5
2018-07-21T04:32:27.505Z,69.69
2018-07-21T04:33:36.364Z,69.31
2018-07-21T04:34:45.227Z,69.21
2018-07-21T04:35:54.089Z,69.6
2018-07-21T04:37:03.225Z,69.5
2018-07-21T04:38:12.083Z,70.17
2018-07-21T04:39:20.943Z,69.4
2018-07-21T04:40:29.805Z,69.69
2018-07-21T04:41:38.667Z,70.27
2018-07-21T04:42:48.130Z,69.89
2018-07-21T04:43:57.226Z,70.17
2018-07-21T04:45:06.363Z,70.07
2018-07-21T04:46:15.225Z,69.98
2018-07-21T04:47:24.361Z,70.65
2018-07-21T04:48:33.222Z,70.17
2018-07-21T04:49:42.085Z,70.07
2018-07-21T04:50:51.045Z,70.07
2018-07-21T04:52:00.195Z,71.04
2018-07-21T04:53:09.054Z,70.62
2018-07-21T04:54:17.918Z,70.23
2018-07-21T04:55:26.782Z,70.94
2018-07-21T04:56:35.793Z,70.84
2018-07-21T04:57:44.655Z,70.33
2018-07-21T04:58:53.522Z,70.84
2018-07-21T05:00:02.398Z,70.37
2018-07-21T05:01:11.245Z,71.04
2018-07-21T05:02:21.009Z,72.06
2018-07-21T05:03:29.868Z,71.39
2018-07-21T05:04:39.007Z,71.77
2018-07-21T05:05:47.870Z,72.19
2018-07-21T05:06:56.733Z,71.29
2018-07-21T05:08:05.970Z,71.42
2018-07-21T05:09:14.833Z,72.09
2018-07-21T05:10:23.698Z,71.81
2018-07-21T05:11:32.834Z,73.79
2018-07-21T05:12:41.698Z,73.98
2018-07-21T05:13:50.608Z,74.4
2018-07-21T05:14:59.750Z,73.69
2018-07-21T05:16:08.617Z,73.88
2018-07-21T05:17:17.477Z,73.35
2018-07-21T05:18:26.337Z,72.06
2018-07-21T05:19:35.199Z,73.02
2018-07-21T05:20:44.063Z,72.77
2018-07-21T05:21:53.198Z,73.06
2018-07-21T05:23:02.061Z,73.06
2018-07-21T05:24:11.196Z,72.77
2018-07-21T05:25:20.057Z,71.71
2018-07-21T05:26:28.917Z,72.67
2018-07-21T05:27:37.777Z,72.77
2018-07-21T05:28:46.639Z,73.83
2018-07-21T05:29:55.499Z,72.67
2018-07-21T05:31:04.462Z,72.29
2018-07-21T05:32:13.331Z,72.19
2018-07-21T05:33:22.231Z,72.48
2018-07-21T05:34:31.050Z,71.71
2018-07-21T05:35:39.953Z,71.52
2018-07-21T05:36:48.924Z,72.48
2018-07-21T05:39:38.704Z,71.65
2018-07-21T05:40:47.568Z,72.03
2018-07-21T05:41:56.426Z,72.8
2018-07-21T05:43:05.567Z,71.94
2018-07-21T05:44:14.428Z,71.94
2018-07-21T05:45:23.562Z,71.75
2018-07-21T05:46:32.423Z,71.55
2018-07-21T05:47:41.431Z,71.65
2018-07-21T05:48:50.292Z,71.65
2018-07-21T05:49:59.152Z,72.52
2018-07-21T05:51:08.014Z,72.13
2018-07-21T05:52:16.873Z,71.55
2018-07-21T05:53:26.163Z,72.03
2018-07-21T05:54:35.081Z,71.94
2018-07-21T05:55:43.952Z,71.17
2018-07-21T05:56:52.752Z,71.46
2018-07-21T05:58:01.613Z,71.55
2018-07-21T05:59:10.827Z,72.8
2018-07-21T06:00:19.966Z,72.13
2018-07-21T06:01:28.830Z,71.55
2018-07-21T06:02:37.741Z,72.13
2018-07-21T06:03:46.653Z,71.65
2018-07-21T06:04:55.511Z,71.36
2018-07-21T06:06:04.382Z,71.84
2018-07-21T06:07:13.234Z,72.23
2018-07-21T06:08:22.106Z,71.26
2018-07-21T06:09:30.963Z,71.46
2018-07-21T06:10:39.933Z,71.75
2018-07-21T06:11:48.792Z,71.78
2018-07-21T06:12:57.654Z,71.11
2018-07-21T06:14:06.515Z,71.08
2018-07-21T06:15:15.378Z,71.11
2018-07-21T06:16:24.392Z,71.26
2018-07-21T06:17:33.254Z,70.5
2018-07-21T06:18:42.422Z,70.43
2018-07-21T06:19:51.622Z,70.72
2018-07-21T06:21:00.475Z,70.62
2018-07-21T06:22:09.786Z,71.3
2018-07-21T06:23:18.651Z,72.17
2018-07-21T06:24:27.790Z,71.69
2018-07-21T06:25:36.936Z,71.11
2018-07-21T06:26:45.801Z,71.01
2018-07-21T06:27:55.308Z,71.2
2018-07-21T06:29:04.152Z,71.11
2018-07-21T06:30:13.341Z,70.92
2018-07-21T06:31:22.480Z,71.88
2018-07-21T06:32:31.341Z,71.78
2018-07-21T06:33:40.555Z,71.59
2018-07-21T06:34:49.414Z,71.2
2018-07-21T06:35:58.278Z,71.3
2018-07-21T06:37:07.140Z,70.92
2018-07-21T06:38:16.002Z,71.49
2018-07-21T06:39:24.914Z,71.69
2018-07-21T06:40:33.777Z,70.53
2018-07-21T06:41:43.193Z,71.2
2018-07-21T06:42:52.055Z,71.4
2018-07-21T06:44:00.987Z,70.53
2018-07-21T06:45:10.348Z,70.34
2018-07-21T06:46:19.211Z,70.72
2018-07-21T06:47:28.073Z,71.11
2018-07-21T06:48:36.934Z,70.18
2018-07-21T06:49:46.072Z,71.24
2018-07-21T06:50:54.985Z,70.37
2018-07-21T06:52:03.850Z,69.51
2018-07-21T06:53:12.710Z,70.47
2018-07-21T06:54:21.856Z,70.95
2018-07-21T06:55:31.089Z,69.89
2018-07-21T06:56:39.951Z,69.12
2018-07-21T06:57:49.380Z,70.21
2018-07-21T06:58:58.527Z,69.93
2018-07-21T07:00:08.024Z,69.35
2018-07-21T07:01:16.891Z,69.15
2018-07-21T07:02:25.752Z,69.64
2018-07-21T07:03:34.615Z,69.25
2018-07-21T07:04:43.551Z,69.73
2018-07-21T07:05:53.414Z,70.31
2018-07-21T07:07:02.275Z,71.18
2018-07-21T07:08:11.238Z,69.64
2018-07-21T07:09:20.375Z,69.35
2018-07-21T07:10:29.240Z,69.15
2018-07-21T07:11:38.100Z,68.68
2018-07-21T07:12:46.963Z,69.45
2018-07-21T07:13:55.827Z,69.35
2018-07-21T07:15:04.693Z,68.1
2018-07-21T07:16:13.649Z,68.19
2018-07-21T07:17:22.802Z,69.64
2018-07-21T07:18:31.664Z,70.98
2018-07-21T07:19:40.524Z,71.56
2018-07-21T07:20:49.389Z,72.05
2018-07-21T07:21:58.252Z,71.28
2018-07-21T07:23:07.115Z,71.95
2018-07-21T07:24:15.979Z,71.95
2018-07-21T07:25:25.279Z,71.18
2018-07-21T07:26:34.140Z,70.5
2018-07-21T07:27:43.278Z,72.81
2018-07-21T07:28:52.140Z,73.1
2018-07-21T07:30:01.280Z,72.91
2018-07-21T07:31:10.142Z,76.28
2018-07-21T07:32:19.004Z,77.06
2018-07-21T07:33:27.867Z,77.15
2018-07-21T07:34:36.729Z,76.86
2018-07-21T07:35:45.595Z,80.91
2018-07-21T07:36:54.609Z,78.21
2018-07-21T07:38:03.474Z,79.94
2018-07-21T07:39:12.338Z,83.99
2018-07-21T07:40:21.202Z,81.77
2018-07-21T07:41:30.067Z,81.2
2018-07-21T07:42:38.929Z,80.81
2018-07-21T07:43:47.792Z,79.94
2018-07-21T07:44:56.653Z,80.43
2018-07-21T07:46:05.514Z,80.04
2018-07-21T07:47:14.377Z,79.81
2018-07-21T07:48:23.516Z,80.1
2018-07-21T07:49:32.378Z,82.6
2018-07-21T07:50:41.241Z,80.77
2018-07-21T07:51:50.104Z,82.79
2018-07-21T07:52:58.964Z,82.41
2018-07-21T07:54:07.978Z,82.7
2018-07-21T07:55:16.839Z,86.07
2018-07-21T07:56:25.702Z,85.68
2018-07-21T07:57:34.565Z,86.07
2018-07-21T07:58:43.428Z,88.09
2018-07-21T07:59:52.442Z,89.15
2018-07-21T08:01:01.306Z,89.34
2018-07-21T08:02:10.457Z,88.38
2018-07-21T08:03:19.316Z,86.74
2018-07-21T08:04:28.179Z,85.87
2018-07-21T08:05:37.145Z,86.16
2018-07-21T08:06:46.005Z,87.41
2018-07-21T08:07:54.873Z,87.7
2018-07-21T08:09:03.732Z,86.07
2018-07-21T08:10:12.595Z,87.95
2018-07-21T08:11:21.834Z,89.34
2018-07-21T08:12:30.695Z,88.09
2018-07-21T08:13:39.557Z,87.99
2018-07-21T08:14:48.420Z,89.43
2018-07-21T08:15:57.287Z,88.57
2018-07-21T08:17:06.427Z,89.15
2018-07-21T08:18:15.337Z,86.74
2018-07-21T08:19:24.503Z,87.22
2018-07-21T08:20:33.663Z,85.87
2018-07-21T08:21:42.525Z,87.55
2018-07-21T08:22:51.538Z,86.78
2018-07-21T08:24:00.400Z,86.11
2018-07-21T08:25:09.263Z,85.14
2018-07-21T08:26:18.127Z,85.34
2018-07-21T08:27:26.992Z,84.47
2018-07-21T08:28:36.131Z,85.05
2018-07-21T08:29:44.995Z,84.38
2018-07-21T08:30:53.858Z,83.41
2018-07-21T08:32:02.722Z,83.89
2018-07-21T08:33:11.586Z,83.99
2018-07-21T08:34:20.457Z,84.56
2018-07-21T08:35:29.324Z,84.86
2018-07-21T08:36:38.460Z,83.41
2018-07-21T08:37:47.891Z,81.91
2018-07-21T08:38:56.753Z,81.43
2018-07-21T08:40:05.619Z,80.94
2018-07-21T08:41:14.758Z,81.14
2018-07-21T08:42:23.623Z,81.52
2018-07-21T08:43:32.501Z,82.49
2018-07-21T08:44:41.364Z,81.62
2018-07-21T08:45:50.228Z,81.24
2018-07-21T08:46:59.090Z,80.76
2018-07-21T08:48:08.231Z,80.46
2018-07-21T08:49:17.093Z,80.56
2018-07-21T08:50:25.961Z,79.89
2018-07-21T08:51:34.825Z,80.76
2018-07-21T08:52:43.963Z,80.46
2018-07-21T08:53:52.829Z,80.37
2018-07-21T08:55:01.694Z,80.66
2018-07-21T08:56:11.030Z,81.24
2018-07-21T08:57:20.464Z,80.56
2018-07-21T08:58:29.327Z,82.2
2018-07-21T08:59:38.193Z,81.43
2018-07-21T09:00:47.058Z,81.72
2018-07-21T09:01:55.927Z,84.52
2018-07-21T09:03:04.795Z,83.16
2018-07-21T09:04:13.654Z,84.12
2018-07-21T09:05:22.519Z,84.32
2018-07-21T09:06:31.390Z,84.42
2018-07-21T09:07:40.530Z,84.61
2018-07-21T09:08:49.543Z,85.28
2018-07-21T09:09:58.408Z,87.88
2018-07-21T09:11:07.553Z,85.19
2018-07-21T09:12:16.468Z,84.42
2018-07-21T09:13:25.611Z,84.99
2018-07-21T09:14:34.625Z,83.74
2018-07-21T09:15:43.489Z,83.74
2018-07-21T09:16:52.356Z,83.16
2018-07-21T09:18:01.223Z,82.68
2018-07-21T09:19:10.086Z,82.68
2018-07-21T09:20:19.324Z,84.32
2018-07-21T09:21:28.252Z,84.52
2018-07-21T09:22:37.051Z,83.16
2018-07-21T09:23:45.916Z,83.16
2018-07-21T09:24:54.778Z,82.29
2018-07-21T09:26:03.794Z,82.14
2018-07-21T09:27:12.938Z,81.76
2018-07-21T09:28:21.798Z,83.78
2018-07-21T09:29:30.661Z,81.57
2018-07-21T09:30:39.528Z,82.1
2018-07-21T09:31:48.541Z,81.37
2018-07-21T09:32:57.690Z,81.47
2018-07-21T09:34:06.613Z,81.57
2018-07-21T09:35:15.721Z,81.47
2018-07-21T09:36:24.596Z,85.33
2018-07-21T09:37:33.609Z,80.99
2018-07-21T09:38:42.473Z,80.69
2018-07-21T09:39:51.336Z,80.89
2018-07-21T09:41:00.205Z,80.02
2018-07-21T09:42:09.069Z,79.54
2018-07-21T09:43:17.925Z,81.66
2018-07-21T09:44:26.841Z,79.74
2018-07-21T09:45:35.706Z,80.12
2018-07-21T09:46:44.571Z,79.44
2018-07-21T09:47:53.433Z,79.54
2018-07-21T09:49:02.461Z,78
2018-07-21T09:50:11.599Z,79.64
2018-07-21T09:51:20.466Z,78.86
2018-07-21T09:52:29.331Z,80.26
2018-07-21T09:53:38.471Z,80.69
2018-07-21T09:54:47.334Z,79.1
2018-07-21T09:55:56.276Z,79
2018-07-21T09:57:05.882Z,78.42
2018-07-21T09:58:14.749Z,79.49
2018-07-21T09:59:23.612Z,80.16
2018-07-21T10:00:32.753Z,79.19
2018-07-21T10:01:41.722Z,78.61
2018-07-21T10:02:51.284Z,78.81
2018-07-21T10:04:00.399Z,79.1
2018-07-21T10:05:09.263Z,78.13
2018-07-21T10:06:18.403Z,79.19
2018-07-21T10:07:27.269Z,78.66
2018-07-21T10:08:36.409Z,78.17
2018-07-21T10:09:45.278Z,78.27
2018-07-21T10:10:54.149Z,77.98
2018-07-21T10:12:03.291Z,78.75
2018-07-21T10:13:12.156Z,77.21
2018-07-21T10:14:21.300Z,76.28
2018-07-21T10:15:30.192Z,75.79
2018-07-21T10:16:39.669Z,75.31
2018-07-21T10:17:48.813Z,75.51
2018-07-21T10:18:57.681Z,75.93
2018-07-21T10:20:06.546Z,73.71
2018-07-21T10:21:15.413Z,75.64
2018-07-21T10:22:24.280Z,75.16
2018-07-21T10:23:33.494Z,75.64
2018-07-21T10:24:42.637Z,75.45
2018-07-21T10:25:51.504Z,75.16
2018-07-21T10:27:00.649Z,74.52
2018-07-21T10:28:09.835Z,74.71
2018-07-21T10:29:19.020Z,74.23
2018-07-21T10:30:27.886Z,74.23
2018-07-21T10:31:37.032Z,74.42
2018-07-21T10:32:45.899Z,73.84
2018-07-21T10:33:55.051Z,73.2
2018-07-21T10:35:04.192Z,72.24
2018-07-21T10:36:13.346Z,72.56
2018-07-21T10:37:22.211Z,70.24
2018-07-21T10:38:31.076Z,70.62
2018-07-21T10:39:39.942Z,70.82
2018-07-21T10:40:49.247Z,69.85
2018-07-21T10:41:58.113Z,68.98
2018-07-21T10:43:07.263Z,68.4
2018-07-21T10:44:16.128Z,68.21
2018-07-21T10:45:24.996Z,68.33
2018-07-21T10:46:34.013Z,68.01
2018-07-21T10:47:43.157Z,68.01
2018-07-21T10:48:52.025Z,68.21
2018-07-21T10:50:01.164Z,69.56
2018-07-21T10:51:10.029Z,69.56
2018-07-21T10:52:18.898Z,68.88
2018-07-21T10:53:28.311Z,68.21
2018-07-21T10:54:37.179Z,68.3
2018-07-21T10:55:46.045Z,68.01
2018-07-21T10:56:54.912Z,68.01
2018-07-21T10:58:04.128Z,69.08
2018-07-21T10:59:12.998Z,68.3
2018-07-21T11:00:22.172Z,68.21
2018-07-21T11:01:31.011Z,69.56
2018-07-21T11:02:39.878Z,68.98
2018-07-21T11:03:49.020Z,68.21
2018-07-21T11:04:57.886Z,69.56
2018-07-21T11:06:06.752Z,69.08
2018-07-21T11:07:15.892Z,68.69
2018-07-21T11:08:24.758Z,68.88
2018-07-21T11:09:33.624Z,68.88
2018-07-21T11:10:42.769Z,69.37
2018-07-21T11:11:51.636Z,69.85
2018-07-21T11:13:00.501Z,71.01
2018-07-21T11:14:09.646Z,69.75
2018-07-21T11:15:18.994Z,68.3
2018-07-21T11:16:28.517Z,68.79
2018-07-21T11:17:37.383Z,68.3
2018-07-21T11:18:46.253Z,68.21
2018-07-21T11:19:55.677Z,68.3
2018-07-21T11:21:04.895Z,68.49
2018-07-21T11:22:13.764Z,69.37
2018-07-21T11:23:22.632Z,69.37
2018-07-21T11:24:31.772Z,68.79
2018-07-21T11:25:40.640Z,68.3
2018-07-21T11:26:49.606Z,68.11
2018-07-21T11:27:58.473Z,69.11
2018-07-21T11:29:07.339Z,68.88
2018-07-21T11:30:16.759Z,69.59
2018-07-21T11:31:25.625Z,68.43
2018-07-21T11:32:34.492Z,68.24
2018-07-21T11:33:43.359Z,69.4
2018-07-21T11:34:52.232Z,69.79
2018-07-21T11:36:01.553Z,69.01
2018-07-21T11:37:09.963Z,69.01
2018-07-21T11:38:18.932Z,68.43
2018-07-21T11:39:27.799Z,68.24
2018-07-21T11:40:36.664Z,69.31
2018-07-21T11:41:45.806Z,69.01
2018-07-21T11:42:54.674Z,68.33
2018-07-21T11:44:03.541Z,68.37
2018-07-21T11:45:12.407Z,68.95
2018-07-21T11:46:21.549Z,68.27
2018-07-21T11:47:30.414Z,68.08
2018-07-21T11:48:39.282Z,68.27
2018-07-21T11:49:48.299Z,69.82
2018-07-21T11:50:57.175Z,68.47
2018-07-21T11:52:06.035Z,68.66
2018-07-21T11:53:14.902Z,68.37
2018-07-21T11:54:23.767Z,69.73
2018-07-21T11:55:32.636Z,69.15
2018-07-21T11:56:41.501Z,69.43
2018-07-21T11:57:50.369Z,67.79
2018-07-21T11:58:59.238Z,68.18
2018-07-21T12:00:08.104Z,67.92
2018-07-21T12:01:17.255Z,68.47
2018-07-21T12:02:26.124Z,67.69
2018-07-21T12:03:35.264Z,68.02
2018-07-21T12:04:44.408Z,67.82
2018-07-21T12:05:53.272Z,68.21
2018-07-21T12:07:02.241Z,67.34
2018-07-21T12:08:11.111Z,67.92
2018-07-21T12:09:20.254Z,68.12
2018-07-21T12:10:29.396Z,68.24
2018-07-21T12:11:38.274Z,68.54
2018-07-21T12:12:47.489Z,67.37
2018-07-21T12:13:56.660Z,67.47
2018-07-21T12:15:05.809Z,68.44
2018-07-21T12:16:14.668Z,68.44
2018-07-21T12:17:23.537Z,67.37
2018-07-21T12:18:32.757Z,68.34
2018-07-21T12:19:41.626Z,67.21
2018-07-21T12:20:50.779Z,67.02
2018-07-21T12:21:59.927Z,67.69
2018-07-21T12:23:08.801Z,66.53
2018-07-21T12:24:18.093Z,67.02
2018-07-21T12:25:26.968Z,65.75
2018-07-21T12:26:36.179Z,66.34
2018-07-21T12:27:45.384Z,65.75
2018-07-21T12:28:54.248Z,65.75
2018-07-21T12:30:03.270Z,65.79
2018-07-21T12:31:12.415Z,65.47
2018-07-21T12:32:21.284Z,65.69
2018-07-21T12:33:30.167Z,65.98
2018-07-21T12:34:39.021Z,65.5
2018-07-21T12:35:48.038Z,66.76
2018-07-21T12:36:56.911Z,65.69
2018-07-21T12:38:06.055Z,65.2
2018-07-21T12:39:14.925Z,65.3
2018-07-21T12:40:23.795Z,64.23
2018-07-21T12:41:32.665Z,64.85
2018-07-21T12:42:41.532Z,64.17
2018-07-21T12:43:50.405Z,63.98
2018-07-21T12:44:59.550Z,64.07
2018-07-21T12:46:08.420Z,64.11
2018-07-21T12:47:17.324Z,63.13
2018-07-21T12:48:26.194Z,62.74
2018-07-21T12:49:35.308Z,64.49
2018-07-21T12:50:44.456Z,63.75
2018-07-21T12:51:53.328Z,62.38
2018-07-21T12:53:02.300Z,63.07
2018-07-21T12:54:11.173Z,62.38
2018-07-21T12:55:20.143Z,63
2018-07-21T12:56:29.013Z,62.81
2018-07-21T12:57:37.882Z,61.41
2018-07-21T12:58:46.900Z,61.74
2018-07-21T12:59:55.772Z,61.41
2018-07-21T13:01:04.653Z,60.93
2018-07-21T13:02:13.522Z,61.71
2018-07-21T13:03:22.724Z,61.61
2018-07-21T13:04:31.897Z,61.71
2018-07-21T13:05:40.766Z,61.71
2018-07-21T13:06:49.633Z,62.97
2018-07-21T13:07:58.501Z,61.41
2018-07-21T13:09:07.368Z,62.19
2018-07-21T13:10:16.591Z,61.9
2018-07-21T13:11:25.463Z,60.83
2018-07-21T13:12:34.613Z,61.12
2018-07-21T13:13:43.482Z,61.32
2018-07-21T13:14:52.351Z,61.32
2018-07-21T13:16:01.245Z,61.51
2018-07-21T13:17:10.091Z,61.22
2018-07-21T13:18:19.240Z,61.61
2018-07-21T13:19:28.107Z,61.9
2018-07-21T13:20:36.978Z,61.32
2018-07-21T13:21:45.849Z,61.02
2018-07-21T13:22:54.725Z,61.02
2018-07-21T13:24:03.597Z,62
2018-07-21T13:25:12.467Z,61.8
2018-07-21T13:26:21.335Z,60.74
2018-07-21T13:27:30.353Z,60.57
2018-07-21T13:28:39.221Z,60.38
2018-07-21T13:29:48.093Z,60.77
2018-07-21T13:30:56.958Z,60.89
2018-07-21T13:32:05.827Z,60.11
2018-07-21T13:33:14.734Z,58.49
2018-07-21T13:34:23.928Z,58.61
2018-07-21T13:35:32.800Z,58.22
2018-07-21T13:36:41.671Z,58.42
2018-07-21T13:37:50.542Z,58.22
2018-07-21T13:38:59.563Z,57.86
2018-07-21T13:40:08.713Z,57.54
2018-07-21T13:41:17.686Z,57.06
2018-07-21T13:42:26.556Z,57.15
2018-07-21T13:43:35.429Z,56.96
2018-07-21T13:44:44.301Z,56.86
2018-07-21T13:45:53.172Z,56.67
2018-07-21T13:47:02.047Z,57.54
2018-07-21T13:48:10.918Z,57.12
2018-07-21T13:49:19.786Z,57.61
2018-07-21T13:50:28.807Z,58.2
2018-07-21T13:51:37.678Z,58
2018-07-21T13:52:46.548Z,57.51
2018-07-21T13:53:55.782Z,58.39
2018-07-21T13:55:05.404Z,58.71
2018-07-21T13:56:14.216Z,60.82
2018-07-21T13:57:23.364Z,58.49
2018-07-21T13:58:33.066Z,58.39
2018-07-21T13:59:41.937Z,57.9
2018-07-21T14:00:50.810Z,58
2018-07-21T14:01:59.958Z,58.29
2018-07-21T14:03:08.829Z,58.2
2018-07-21T14:04:17.699Z,58.49
2018-07-21T14:05:26.568Z,58.78
2018-07-21T14:06:35.441Z,58.22
2018-07-21T14:07:44.931Z,58.49
2018-07-21T14:08:53.805Z,57.71
2018-07-21T14:10:03.233Z,58.22
2018-07-21T14:11:12.446Z,57.45
2018-07-21T14:12:21.318Z,56.86
2018-07-21T14:13:30.184Z,57.84
2018-07-21T14:14:39.053Z,57.25
2018-07-21T14:15:48.005Z,57.25
2018-07-21T14:16:57.181Z,57.15
2018-07-21T14:18:06.360Z,56.86
2018-07-21T14:19:15.233Z,57.74
2018-07-21T14:20:24.099Z,56.37
2018-07-21T14:21:32.969Z,55.89
2018-07-21T14:22:41.838Z,56.09
2018-07-21T14:23:50.719Z,56.37
2018-07-21T14:25:00.474Z,55.99
2018-07-21T14:26:09.342Z,56.76
2018-07-21T14:27:18.214Z,56.18
2018-07-21T14:28:27.084Z,57.84
2018-07-21T14:29:36.448Z,58.22
2018-07-21T14:30:45.228Z,57.84
2018-07-21T14:31:54.098Z,57.54
2018-07-21T14:33:02.970Z,58.51
2018-07-21T14:34:11.836Z,57.35
2018-07-21T14:35:20.706Z,58.32
2018-07-21T14:36:30.025Z,56.76
2018-07-21T14:37:38.724Z,57.15
2018-07-21T14:38:47.597Z,56.57
2018-07-21T14:39:56.463Z,57.84
2018-07-21T14:41:05.608Z,55.99
2018-07-21T14:42:14.630Z,56.76
2018-07-21T14:43:23.499Z,56.57
2018-07-21T14:44:32.368Z,56.47
2018-07-21T14:45:41.237Z,56.96
2018-07-21T14:46:50.390Z,57.64
2018-07-21T14:47:59.412Z,56.67
2018-07-21T14:49:08.556Z,56.96
2018-07-21T14:50:17.426Z,57.06
2018-07-21T14:51:26.294Z,56.57
2018-07-21T14:52:35.170Z,56.67
2018-07-21T14:53:44.667Z,55.89
2018-07-21T14:54:53.572Z,55.69